sensor_id;sensor_type;location;lat;lon;timestamp;temperature;humidity
47090;DHT22;32840;52.516;13.294;2023-08-21T00:02:34;23.90;99.90
47090;DHT22;32840;52.516;13.294;2023-08-21T00:05:19;23.90;99.90
47090;DHT22;32840;52.516;13.294;2023-08-21T00:08:04;23.90;99.90
47090;DHT22;32840;52.516;13.294;2023-08-21T00:10:49;23.80;99.90
47090;DHT22;32840;52.516;13.294;2023-08-21T00:13:34;23.90;99.90
47090;DHT22;32840;52.516;13.294;2023-08-21T00:16:19;23.90;99.90
47090;DHT22;32840;52.516;13.294;2023-08-21T00:19:04;23.90;99.90
47090;DHT22;32840;52.516;13.294;2023-08-21T00:21:49;23.90;99.90
47090;DHT22;32840;52.516;13.294;2023-08-21T00:24:35;23.80;99.90
47090;DHT22;32840;52.516;13.294;2023-08-21T00:27:19;23.80;99.90
47090;DHT22;32840;52.516;13.294;2023-08-21T00:30:05;23.70;99.90
47090;DHT22;32840;52.516;13.294;2023-08-21T00:32:50;23.60;99.90
47090;DHT22;32840;52.516;13.294;2023-08-21T00:35:35;23.60;99.90
47090;DHT22;32840;52.516;13.294;2023-08-21T00:38:20;23.60;99.90
47090;DHT22;32840;52.516;13.294;2023-08-21T00:41:06;23.60;99.90
47090;DHT22;32840;52.516;13.294;2023-08-21T00:43:51;23.60;99.90
47090;DHT22;32840;52.516;13.294;2023-08-21T00:46:36;23.60;99.90
47090;DHT22;32840;52.516;13.294;2023-08-21T00:49:21;23.60;99.90
47090;DHT22;32840;52.516;13.294;2023-08-21T00:52:08;23.70;99.90
47090;DHT22;32840;52.516;13.294;2023-08-21T00:54:55;23.70;99.90
47090;DHT22;32840;52.516;13.294;2023-08-21T00:57:40;23.60;99.90
47090;DHT22;32840;52.516;13.294;2023-08-21T01:00:27;23.60;99.90
47090;DHT22;32840;52.516;13.294;2023-08-21T01:03:13;23.50;99.90
47090;DHT22;32840;52.516;13.294;2023-08-21T01:05:58;23.60;99.90
47090;DHT22;32840;52.516;13.294;2023-08-21T01:09:24;23.50;99.90
47090;DHT22;32840;52.516;13.294;2023-08-21T01:12:28;23.60;99.90
47090;DHT22;32840;52.516;13.294;2023-08-21T01:15:14;23.50;99.90
47090;DHT22;32840;52.516;13.294;2023-08-21T01:17:59;23.50;99.90
47090;DHT22;32840;52.516;13.294;2023-08-21T01:20:45;23.60;99.90
47090;DHT22;32840;52.516;13.294;2023-08-21T01:23:36;23.50;99.90
47090;DHT22;32840;52.516;13.294;2023-08-21T01:26:21;23.60;99.90
47090;DHT22;32840;52.516;13.294;2023-08-21T01:29:06;23.50;99.90
47090;DHT22;32840;52.516;13.294;2023-08-21T01:32:12;23.50;99.90
47090;DHT22;32840;52.516;13.294;2023-08-21T01:34:59;23.50;99.90
47090;DHT22;32840;52.516;13.294;2023-08-21T01:37:44;23.40;99.90
47090;DHT22;32840;52.516;13.294;2023-08-21T01:40:29;23.40;99.90
47090;DHT22;32840;52.516;13.294;2023-08-21T01:43:15;23.40;99.90
47090;DHT22;32840;52.516;13.294;2023-08-21T01:46:01;23.40;99.90
47090;DHT22;32840;52.516;13.294;2023-08-21T01:48:47;23.50;99.90
47090;DHT22;32840;52.516;13.294;2023-08-21T01:51:32;23.60;99.90
47090;DHT22;32840;52.516;13.294;2023-08-21T01:54:17;23.50;99.90
47090;DHT22;32840;52.516;13.294;2023-08-21T01:57:02;23.50;99.90
47090;DHT22;32840;52.516;13.294;2023-08-21T01:59:47;23.50;99.90
47090;DHT22;32840;52.516;13.294;2023-08-21T02:02:32;23.40;99.90
47090;DHT22;32840;52.516;13.294;2023-08-21T02:05:17;23.40;99.90
47090;DHT22;32840;52.516;13.294;2023-08-21T02:08:03;23.40;99.90
47090;DHT22;32840;52.516;13.294;2023-08-21T02:10:51;23.50;99.90
47090;DHT22;32840;52.516;13.294;2023-08-21T02:13:36;23.50;99.90
47090;DHT22;32840;52.516;13.294;2023-08-21T02:16:20;23.40;99.90
47090;DHT22;32840;52.516;13.294;2023-08-21T02:19:06;23.30;99.90
47090;DHT22;32840;52.516;13.294;2023-08-21T02:21:51;23.30;99.90
47090;DHT22;32840;52.516;13.294;2023-08-21T02:24:36;23.30;99.90
47090;DHT22;32840;52.516;13.294;2023-08-21T02:27:21;23.30;99.90
47090;DHT22;32840;52.516;13.294;2023-08-21T02:30:06;23.30;99.90
47090;DHT22;32840;52.516;13.294;2023-08-21T02:32:52;23.30;99.90
47090;DHT22;32840;52.516;13.294;2023-08-21T02:35:37;23.30;99.90
47090;DHT22;32840;52.516;13.294;2023-08-21T02:38:22;23.40;99.90
47090;DHT22;32840;52.516;13.294;2023-08-21T02:41:08;23.30;99.90
47090;DHT22;32840;52.516;13.294;2023-08-21T02:43:53;23.30;99.90
47090;DHT22;32840;52.516;13.294;2023-08-21T02:46:38;23.30;99.90
47090;DHT22;32840;52.516;13.294;2023-08-21T02:49:23;23.30;99.90
47090;DHT22;32840;52.516;13.294;2023-08-21T02:52:08;23.40;99.90
47090;DHT22;32840;52.516;13.294;2023-08-21T02:54:53;23.40;99.90
47090;DHT22;32840;52.516;13.294;2023-08-21T02:57:38;23.40;99.90
47090;DHT22;32840;52.516;13.294;2023-08-21T03:00:23;23.30;99.90
47090;DHT22;32840;52.516;13.294;2023-08-21T03:03:08;23.40;99.90
47090;DHT22;32840;52.516;13.294;2023-08-21T03:05:53;23.40;99.90
47090;DHT22;32840;52.516;13.294;2023-08-21T03:08:38;23.30;99.90
47090;DHT22;32840;52.516;13.294;2023-08-21T03:11:23;23.40;99.90
47090;DHT22;32840;52.516;13.294;2023-08-21T03:14:08;23.40;99.90
47090;DHT22;32840;52.516;13.294;2023-08-21T03:16:53;23.50;99.90
47090;DHT22;32840;52.516;13.294;2023-08-21T03:19:38;23.50;99.90
47090;DHT22;32840;52.516;13.294;2023-08-21T03:22:23;23.60;99.90
47090;DHT22;32840;52.516;13.294;2023-08-21T03:25:08;23.50;99.90
47090;DHT22;32840;52.516;13.294;2023-08-21T03:27:53;23.50;99.90
47090;DHT22;32840;52.516;13.294;2023-08-21T03:30:41;23.50;99.90
47090;DHT22;32840;52.516;13.294;2023-08-21T03:33:26;23.50;99.90
47090;DHT22;32840;52.516;13.294;2023-08-21T03:36:11;23.40;99.90
47090;DHT22;32840;52.516;13.294;2023-08-21T03:38:58;23.40;99.90
47090;DHT22;32840;52.516;13.294;2023-08-21T03:41:42;23.40;99.90
47090;DHT22;32840;52.516;13.294;2023-08-21T03:44:27;23.40;99.90
47090;DHT22;32840;52.516;13.294;2023-08-21T03:47:12;23.30;99.90
47090;DHT22;32840;52.516;13.294;2023-08-21T03:49:58;23.30;99.90
47090;DHT22;32840;52.516;13.294;2023-08-21T03:52:43;23.30;99.90
47090;DHT22;32840;52.516;13.294;2023-08-21T03:55:28;23.30;99.90
47090;DHT22;32840;52.516;13.294;2023-08-21T03:58:13;23.20;99.90
47090;DHT22;32840;52.516;13.294;2023-08-21T04:00:58;23.20;99.90
47090;DHT22;32840;52.516;13.294;2023-08-21T04:03:43;23.20;99.90
47090;DHT22;32840;52.516;13.294;2023-08-21T04:06:28;23.20;99.90
47090;DHT22;32840;52.516;13.294;2023-08-21T04:09:13;23.20;99.90
47090;DHT22;32840;52.516;13.294;2023-08-21T04:11:58;23.30;99.90
47090;DHT22;32840;52.516;13.294;2023-08-21T04:14:43;23.20;99.90
47090;DHT22;32840;52.516;13.294;2023-08-21T04:17:28;23.10;99.90
47090;DHT22;32840;52.516;13.294;2023-08-21T04:20:12;23.00;99.90
47090;DHT22;32840;52.516;13.294;2023-08-21T04:22:57;23.00;99.90
47090;DHT22;32840;52.516;13.294;2023-08-21T04:25:42;23.20;99.90
47090;DHT22;32840;52.516;13.294;2023-08-21T04:28:29;23.30;99.90
47090;DHT22;32840;52.516;13.294;2023-08-21T04:31:14;23.30;99.90
47090;DHT22;32840;52.516;13.294;2023-08-21T04:33:59;23.20;99.90
47090;DHT22;32840;52.516;13.294;2023-08-21T04:36:44;23.30;99.90
47090;DHT22;32840;52.516;13.294;2023-08-21T04:39:29;23.30;99.90
47090;DHT22;32840;52.516;13.294;2023-08-21T04:42:14;23.10;99.90
47090;DHT22;32840;52.516;13.294;2023-08-21T04:44:59;23.00;99.90
47090;DHT22;32840;52.516;13.294;2023-08-21T04:47:44;23.10;99.90
47090;DHT22;32840;52.516;13.294;2023-08-21T04:50:29;23.10;99.90
47090;DHT22;32840;52.516;13.294;2023-08-21T04:53:14;23.20;99.90
47090;DHT22;32840;52.516;13.294;2023-08-21T04:55:59;23.30;99.90
47090;DHT22;32840;52.516;13.294;2023-08-21T04:58:44;23.40;99.90
47090;DHT22;32840;52.516;13.294;2023-08-21T05:01:29;23.40;99.90
47090;DHT22;32840;52.516;13.294;2023-08-21T05:04:14;23.40;99.90
47090;DHT22;32840;52.516;13.294;2023-08-21T05:07:00;23.40;99.90
47090;DHT22;32840;52.516;13.294;2023-08-21T05:09:44;23.40;99.90
47090;DHT22;32840;52.516;13.294;2023-08-21T05:12:29;23.30;99.90
47090;DHT22;32840;52.516;13.294;2023-08-21T05:15:14;23.30;99.90
47090;DHT22;32840;52.516;13.294;2023-08-21T05:17:59;23.30;99.90
47090;DHT22;32840;52.516;13.294;2023-08-21T05:20:44;23.30;99.90
47090;DHT22;32840;52.516;13.294;2023-08-21T05:23:29;23.30;99.90
47090;DHT22;32840;52.516;13.294;2023-08-21T05:26:14;23.30;99.90
47090;DHT22;32840;52.516;13.294;2023-08-21T05:28:59;23.30;99.90
47090;DHT22;32840;52.516;13.294;2023-08-21T05:31:44;23.30;99.90
47090;DHT22;32840;52.516;13.294;2023-08-21T05:34:29;23.40;99.90
47090;DHT22;32840;52.516;13.294;2023-08-21T05:37:14;23.40;99.90
47090;DHT22;32840;52.516;13.294;2023-08-21T05:40:00;23.50;99.90
47090;DHT22;32840;52.516;13.294;2023-08-21T05:42:45;23.60;99.90
47090;DHT22;32840;52.516;13.294;2023-08-21T05:45:30;23.60;99.90
47090;DHT22;32840;52.516;13.294;2023-08-21T05:48:16;23.60;99.90
47090;DHT22;32840;52.516;13.294;2023-08-21T05:51:02;23.60;99.90
47090;DHT22;32840;52.516;13.294;2023-08-21T05:53:47;23.60;99.90
47090;DHT22;32840;52.516;13.294;2023-08-21T05:56:32;23.60;99.90
47090;DHT22;32840;52.516;13.294;2023-08-21T05:59:29;23.60;99.90
47090;DHT22;32840;52.516;13.294;2023-08-21T06:02:14;23.70;99.90
47090;DHT22;32840;52.516;13.294;2023-08-21T06:04:59;23.90;99.90
47090;DHT22;32840;52.516;13.294;2023-08-21T06:07:44;23.90;99.90
47090;DHT22;32840;52.516;13.294;2023-08-21T06:10:31;23.90;99.90
47090;DHT22;32840;52.516;13.294;2023-08-21T06:13:16;23.90;99.90
47090;DHT22;32840;52.516;13.294;2023-08-21T06:16:01;23.80;99.90
47090;DHT22;32840;52.516;13.294;2023-08-21T06:18:46;23.90;99.90
47090;DHT22;32840;52.516;13.294;2023-08-21T06:21:30;23.90;99.90
47090;DHT22;32840;52.516;13.294;2023-08-21T06:24:15;24.00;99.90
47090;DHT22;32840;52.516;13.294;2023-08-21T06:27:00;23.90;99.90
47090;DHT22;32840;52.516;13.294;2023-08-21T06:29:45;23.80;99.90
47090;DHT22;32840;52.516;13.294;2023-08-21T06:32:30;23.90;99.90
47090;DHT22;32840;52.516;13.294;2023-08-21T06:35:15;23.90;99.90
47090;DHT22;32840;52.516;13.294;2023-08-21T06:38:00;24.00;99.90
47090;DHT22;32840;52.516;13.294;2023-08-21T06:40:45;24.10;99.90
47090;DHT22;32840;52.516;13.294;2023-08-21T06:43:33;24.20;99.90
47090;DHT22;32840;52.516;13.294;2023-08-21T06:46:18;24.20;99.90
47090;DHT22;32840;52.516;13.294;2023-08-21T06:49:03;24.20;99.90
47090;DHT22;32840;52.516;13.294;2023-08-21T06:51:48;24.30;99.90
47090;DHT22;32840;52.516;13.294;2023-08-21T06:54:33;24.40;99.90
47090;DHT22;32840;52.516;13.294;2023-08-21T06:57:18;24.60;99.90
47090;DHT22;32840;52.516;13.294;2023-08-21T07:00:05;24.80;99.90
47090;DHT22;32840;52.516;13.294;2023-08-21T07:02:50;24.90;99.90
47090;DHT22;32840;52.516;13.294;2023-08-21T07:05:35;24.80;99.90
47090;DHT22;32840;52.516;13.294;2023-08-21T07:08:20;24.80;99.90
47090;DHT22;32840;52.516;13.294;2023-08-21T07:11:05;24.80;99.90
47090;DHT22;32840;52.516;13.294;2023-08-21T07:13:50;24.80;99.90
47090;DHT22;32840;52.516;13.294;2023-08-21T07:16:35;24.80;99.90
47090;DHT22;32840;52.516;13.294;2023-08-21T07:19:19;24.80;99.90
47090;DHT22;32840;52.516;13.294;2023-08-21T07:22:04;24.80;99.90
47090;DHT22;32840;52.516;13.294;2023-08-21T07:24:49;24.80;99.90
47090;DHT22;32840;52.516;13.294;2023-08-21T07:27:34;24.90;99.90
47090;DHT22;32840;52.516;13.294;2023-08-21T07:30:20;24.70;99.90
47090;DHT22;32840;52.516;13.294;2023-08-21T07:33:05;24.60;99.90
47090;DHT22;32840;52.516;13.294;2023-08-21T07:36:01;24.50;99.90
47090;DHT22;32840;52.516;13.294;2023-08-21T07:38:46;24.50;99.90
47090;DHT22;32840;52.516;13.294;2023-08-21T07:41:31;24.70;99.90
47090;DHT22;32840;52.516;13.294;2023-08-21T07:44:19;24.80;99.90
47090;DHT22;32840;52.516;13.294;2023-08-21T07:47:04;24.90;99.90
47090;DHT22;32840;52.516;13.294;2023-08-21T07:49:49;25.10;99.90
47090;DHT22;32840;52.516;13.294;2023-08-21T07:52:34;25.20;99.90
47090;DHT22;32840;52.516;13.294;2023-08-21T07:55:20;25.40;99.90
47090;DHT22;32840;52.516;13.294;2023-08-21T07:58:05;25.60;99.90
47090;DHT22;32840;52.516;13.294;2023-08-21T08:00:50;25.80;99.90
47090;DHT22;32840;52.516;13.294;2023-08-21T08:03:35;25.70;99.90
47090;DHT22;32840;52.516;13.294;2023-08-21T08:06:20;25.60;99.90
47090;DHT22;32840;52.516;13.294;2023-08-21T08:09:05;25.40;99.90
47090;DHT22;32840;52.516;13.294;2023-08-21T08:11:49;25.30;99.90
47090;DHT22;32840;52.516;13.294;2023-08-21T08:14:35;25.30;99.90
47090;DHT22;32840;52.516;13.294;2023-08-21T08:17:19;25.30;99.90
47090;DHT22;32840;52.516;13.294;2023-08-21T08:20:05;25.40;99.90
47090;DHT22;32840;52.516;13.294;2023-08-21T08:22:50;25.50;99.90
47090;DHT22;32840;52.516;13.294;2023-08-21T08:25:35;25.50;99.90
47090;DHT22;32840;52.516;13.294;2023-08-21T08:28:20;25.50;99.90
47090;DHT22;32840;52.516;13.294;2023-08-21T08:31:05;25.70;99.90
47090;DHT22;32840;52.516;13.294;2023-08-21T08:33:50;26.20;99.90
47090;DHT22;32840;52.516;13.294;2023-08-21T08:36:35;26.50;99.90
47090;DHT22;32840;52.516;13.294;2023-08-21T08:39:20;26.50;99.90
47090;DHT22;32840;52.516;13.294;2023-08-21T08:42:06;26.70;98.80
47090;DHT22;32840;52.516;13.294;2023-08-21T08:44:54;26.90;95.90
47090;DHT22;32840;52.516;13.294;2023-08-21T08:47:41;27.10;92.90
47090;DHT22;32840;52.516;13.294;2023-08-21T08:50:29;27.20;92.60
47090;DHT22;32840;52.516;13.294;2023-08-21T08:53:15;27.70;89.80
47090;DHT22;32840;52.516;13.294;2023-08-21T08:56:01;27.70;82.40
47090;DHT22;32840;52.516;13.294;2023-08-21T08:58:46;27.60;79.60
47090;DHT22;32840;52.516;13.294;2023-08-21T09:01:31;27.50;77.70
47090;DHT22;32840;52.516;13.294;2023-08-21T09:04:16;27.50;75.90
47090;DHT22;32840;52.516;13.294;2023-08-21T09:07:09;27.30;74.30
47090;DHT22;32840;52.516;13.294;2023-08-21T09:09:54;27.10;74.80
47090;DHT22;32840;52.516;13.294;2023-08-21T09:12:39;27.10;74.20
47090;DHT22;32840;52.516;13.294;2023-08-21T09:15:28;27.10;74.80
47090;DHT22;32840;52.516;13.294;2023-08-21T09:18:15;27.00;75.50
47090;DHT22;32840;52.516;13.294;2023-08-21T09:21:02;27.20;75.60
47090;DHT22;32840;52.516;13.294;2023-08-21T09:23:47;27.20;75.00
47090;DHT22;32840;52.516;13.294;2023-08-21T09:26:33;27.40;75.20
47090;DHT22;32840;52.516;13.294;2023-08-21T09:29:18;27.60;75.40
47090;DHT22;32840;52.516;13.294;2023-08-21T09:32:03;27.80;73.40
47090;DHT22;32840;52.516;13.294;2023-08-21T09:34:48;28.20;73.20
47090;DHT22;32840;52.516;13.294;2023-08-21T09:37:33;28.10;72.70
47090;DHT22;32840;52.516;13.294;2023-08-21T09:40:19;27.90;72.00
47090;DHT22;32840;52.516;13.294;2023-08-21T09:43:04;27.80;72.10
47090;DHT22;32840;52.516;13.294;2023-08-21T09:45:51;27.70;72.10
47090;DHT22;32840;52.516;13.294;2023-08-21T09:48:38;27.70;72.80
47090;DHT22;32840;52.516;13.294;2023-08-21T09:51:23;27.80;73.60
47090;DHT22;32840;52.516;13.294;2023-08-21T09:54:08;27.90;73.30
47090;DHT22;32840;52.516;13.294;2023-08-21T09:56:53;27.80;74.20
47090;DHT22;32840;52.516;13.294;2023-08-21T09:59:39;27.70;73.80
47090;DHT22;32840;52.516;13.294;2023-08-21T10:02:26;27.50;72.70
47090;DHT22;32840;52.516;13.294;2023-08-21T10:05:13;27.50;73.40
47090;DHT22;32840;52.516;13.294;2023-08-21T10:08:02;27.60;74.70
47090;DHT22;32840;52.516;13.294;2023-08-21T10:10:49;27.70;73.60
47090;DHT22;32840;52.516;13.294;2023-08-21T10:13:36;28.00;72.50
47090;DHT22;32840;52.516;13.294;2023-08-21T10:16:22;28.00;71.20
47090;DHT22;32840;52.516;13.294;2023-08-21T10:19:08;28.00;70.20
47090;DHT22;32840;52.516;13.294;2023-08-21T10:21:55;27.90;69.70
47090;DHT22;32840;52.516;13.294;2023-08-21T10:24:40;28.00;70.10
47090;DHT22;32840;52.516;13.294;2023-08-21T10:27:33;28.00;69.00
47090;DHT22;32840;52.516;13.294;2023-08-21T10:30:26;28.00;67.80
47090;DHT22;32840;52.516;13.294;2023-08-21T10:33:11;27.90;67.10
47090;DHT22;32840;52.516;13.294;2023-08-21T10:35:56;27.90;68.00
47090;DHT22;32840;52.516;13.294;2023-08-21T10:39:00;27.70;67.50
47090;DHT22;32840;52.516;13.294;2023-08-21T10:50:12;27.60;69.70
47090;DHT22;32840;52.516;13.294;2023-08-21T10:52:58;27.90;70.90
47090;DHT22;32840;52.516;13.294;2023-08-21T10:55:55;28.00;67.60
47090;DHT22;32840;52.516;13.294;2023-08-21T10:58:44;27.80;68.60
47090;DHT22;32840;52.516;13.294;2023-08-21T11:01:43;27.60;69.30
47090;DHT22;32840;52.516;13.294;2023-08-21T11:04:29;27.80;69.30
47090;DHT22;32840;52.516;13.294;2023-08-21T11:07:14;28.10;68.80
47090;DHT22;32840;52.516;13.294;2023-08-21T11:09:59;28.40;68.70
47090;DHT22;32840;52.516;13.294;2023-08-21T11:12:54;28.50;67.80
47090;DHT22;32840;52.516;13.294;2023-08-21T11:15:40;28.50;68.40
47090;DHT22;32840;52.516;13.294;2023-08-21T11:18:35;28.50;68.20
47090;DHT22;32840;52.516;13.294;2023-08-21T11:21:23;28.20;67.30
47090;DHT22;32840;52.516;13.294;2023-08-21T11:24:10;28.10;66.90
47090;DHT22;32840;52.516;13.294;2023-08-21T11:26:55;27.90;66.50
47090;DHT22;32840;52.516;13.294;2023-08-21T11:29:44;27.90;66.60
47090;DHT22;32840;52.516;13.294;2023-08-21T11:32:30;28.10;66.20
47090;DHT22;32840;52.516;13.294;2023-08-21T11:35:15;28.10;66.60
47090;DHT22;32840;52.516;13.294;2023-08-21T11:37:59;28.00;65.90
47090;DHT22;32840;52.516;13.294;2023-08-21T11:40:59;28.10;66.40
47090;DHT22;32840;52.516;13.294;2023-08-21T11:43:45;28.30;65.50
47090;DHT22;32840;52.516;13.294;2023-08-21T11:46:29;28.30;65.40
47090;DHT22;32840;52.516;13.294;2023-08-21T11:49:15;28.20;64.30
47090;DHT22;32840;52.516;13.294;2023-08-21T11:51:59;28.20;64.60
47090;DHT22;32840;52.516;13.294;2023-08-21T11:54:48;28.10;64.40
47090;DHT22;32840;52.516;13.294;2023-08-21T11:57:33;28.00;64.50
47090;DHT22;32840;52.516;13.294;2023-08-21T12:00:19;28.20;65.50
47090;DHT22;32840;52.516;13.294;2023-08-21T12:03:07;28.20;64.40
47090;DHT22;32840;52.516;13.294;2023-08-21T12:05:55;28.10;65.10
47090;DHT22;32840;52.516;13.294;2023-08-21T12:08:40;27.90;64.50
47090;DHT22;32840;52.516;13.294;2023-08-21T12:11:24;27.90;65.10
47090;DHT22;32840;52.516;13.294;2023-08-21T12:14:09;28.10;65.30
47090;DHT22;32840;52.516;13.294;2023-08-21T12:16:55;28.10;64.50
47090;DHT22;32840;52.516;13.294;2023-08-21T12:19:40;28.00;65.00
47090;DHT22;32840;52.516;13.294;2023-08-21T12:22:26;28.00;66.10
47090;DHT22;32840;52.516;13.294;2023-08-21T12:25:11;28.00;66.60
47090;DHT22;32840;52.516;13.294;2023-08-21T12:27:57;28.10;66.00
47090;DHT22;32840;52.516;13.294;2023-08-21T12:30:42;27.90;65.70
47090;DHT22;32840;52.516;13.294;2023-08-21T12:33:27;27.80;66.60
47090;DHT22;32840;52.516;13.294;2023-08-21T12:36:12;27.80;65.80
47090;DHT22;32840;52.516;13.294;2023-08-21T12:38:57;27.70;65.50
47090;DHT22;32840;52.516;13.294;2023-08-21T12:41:42;27.60;66.90
47090;DHT22;32840;52.516;13.294;2023-08-21T12:44:27;27.70;65.60
47090;DHT22;32840;52.516;13.294;2023-08-21T12:47:12;27.80;65.80
47090;DHT22;32840;52.516;13.294;2023-08-21T12:49:57;27.90;66.10
47090;DHT22;32840;52.516;13.294;2023-08-21T12:52:42;28.10;66.10
47090;DHT22;32840;52.516;13.294;2023-08-21T12:55:28;27.90;64.30
47090;DHT22;32840;52.516;13.294;2023-08-21T12:58:13;27.90;63.60
47090;DHT22;32840;52.516;13.294;2023-08-21T13:00:58;27.90;64.50
47090;DHT22;32840;52.516;13.294;2023-08-21T13:03:44;28.10;64.40
47090;DHT22;32840;52.516;13.294;2023-08-21T13:06:30;28.20;62.20
47090;DHT22;32840;52.516;13.294;2023-08-21T13:09:15;28.20;61.40
47090;DHT22;32840;52.516;13.294;2023-08-21T13:12:00;28.20;62.30
47090;DHT22;32840;52.516;13.294;2023-08-21T13:14:45;28.30;60.90
47090;DHT22;32840;52.516;13.294;2023-08-21T13:17:33;28.10;60.80
47090;DHT22;32840;52.516;13.294;2023-08-21T13:20:18;27.90;62.00
47090;DHT22;32840;52.516;13.294;2023-08-21T13:23:03;27.80;61.90
47090;DHT22;32840;52.516;13.294;2023-08-21T13:25:49;27.80;62.30
47090;DHT22;32840;52.516;13.294;2023-08-21T13:28:34;28.00;61.30
47090;DHT22;32840;52.516;13.294;2023-08-21T13:31:19;28.10;60.50
47090;DHT22;32840;52.516;13.294;2023-08-21T13:34:04;28.20;60.50
47090;DHT22;32840;52.516;13.294;2023-08-21T13:36:49;28.40;59.90
47090;DHT22;32840;52.516;13.294;2023-08-21T13:39:35;28.30;58.70
47090;DHT22;32840;52.516;13.294;2023-08-21T13:42:20;28.20;58.70
47090;DHT22;32840;52.516;13.294;2023-08-21T13:45:09;28.10;57.50
47090;DHT22;32840;52.516;13.294;2023-08-21T13:47:55;27.90;56.20
47090;DHT22;32840;52.516;13.294;2023-08-21T13:50:40;27.90;56.70
47090;DHT22;32840;52.516;13.294;2023-08-21T13:53:25;27.70;55.80
47090;DHT22;32840;52.516;13.294;2023-08-21T13:56:10;27.50;56.80
47090;DHT22;32840;52.516;13.294;2023-08-21T13:58:55;27.40;57.70
47090;DHT22;32840;52.516;13.294;2023-08-21T14:01:40;27.40;57.60
47090;DHT22;32840;52.516;13.294;2023-08-21T14:04:25;27.40;57.90
47090;DHT22;32840;52.516;13.294;2023-08-21T14:07:10;27.50;58.90
47090;DHT22;32840;52.516;13.294;2023-08-21T14:09:56;27.50;57.70
47090;DHT22;32840;52.516;13.294;2023-08-21T14:12:41;27.50;58.60
47090;DHT22;32840;52.516;13.294;2023-08-21T14:15:26;27.50;56.70
47090;DHT22;32840;52.516;13.294;2023-08-21T14:18:11;27.60;55.10
47090;DHT22;32840;52.516;13.294;2023-08-21T14:20:56;27.50;55.10
47090;DHT22;32840;52.516;13.294;2023-08-21T14:23:41;27.50;55.40
47090;DHT22;32840;52.516;13.294;2023-08-21T14:26:26;27.50;56.00
47090;DHT22;32840;52.516;13.294;2023-08-21T14:29:11;27.60;56.50
47090;DHT22;32840;52.516;13.294;2023-08-21T14:31:58;27.70;57.00
47090;DHT22;32840;52.516;13.294;2023-08-21T14:34:44;27.70;57.50
47090;DHT22;32840;52.516;13.294;2023-08-21T14:37:30;27.70;57.80
47090;DHT22;32840;52.516;13.294;2023-08-21T14:40:15;27.70;57.60
47090;DHT22;32840;52.516;13.294;2023-08-21T14:43:00;27.80;58.00
47090;DHT22;32840;52.516;13.294;2023-08-21T14:45:46;27.80;57.10
47090;DHT22;32840;52.516;13.294;2023-08-21T14:48:31;27.80;57.80
47090;DHT22;32840;52.516;13.294;2023-08-21T14:51:16;27.90;59.00
47090;DHT22;32840;52.516;13.294;2023-08-21T14:54:01;28.10;57.90
47090;DHT22;32840;52.516;13.294;2023-08-21T14:56:49;28.20;57.40
47090;DHT22;32840;52.516;13.294;2023-08-21T14:59:34;28.20;57.50
47090;DHT22;32840;52.516;13.294;2023-08-21T15:02:19;28.10;57.70
47090;DHT22;32840;52.516;13.294;2023-08-21T15:05:04;27.90;58.90
47090;DHT22;32840;52.516;13.294;2023-08-21T15:07:51;27.60;58.70
47090;DHT22;32840;52.516;13.294;2023-08-21T15:10:39;27.50;59.30
47090;DHT22;32840;52.516;13.294;2023-08-21T15:13:24;27.40;59.40
47090;DHT22;32840;52.516;13.294;2023-08-21T15:16:09;27.30;59.60
47090;DHT22;32840;52.516;13.294;2023-08-21T15:18:55;27.10;59.80
47090;DHT22;32840;52.516;13.294;2023-08-21T15:21:41;27.10;60.20
47090;DHT22;32840;52.516;13.294;2023-08-21T15:24:26;27.10;60.20
47090;DHT22;32840;52.516;13.294;2023-08-21T15:27:11;27.20;61.30
47090;DHT22;32840;52.516;13.294;2023-08-21T15:30:00;27.20;60.30
47090;DHT22;32840;52.516;13.294;2023-08-21T15:32:45;27.20;60.20
47090;DHT22;32840;52.516;13.294;2023-08-21T15:35:31;27.10;61.10
47090;DHT22;32840;52.516;13.294;2023-08-21T15:38:19;27.10;62.00
47090;DHT22;32840;52.516;13.294;2023-08-21T15:41:03;27.10;61.50
47090;DHT22;32840;52.516;13.294;2023-08-21T15:43:48;27.00;62.10
47090;DHT22;32840;52.516;13.294;2023-08-21T15:46:33;27.00;62.00
47090;DHT22;32840;52.516;13.294;2023-08-21T15:49:18;27.00;62.80
47090;DHT22;32840;52.516;13.294;2023-08-21T15:52:04;27.00;62.30
47090;DHT22;32840;52.516;13.294;2023-08-21T15:54:49;27.00;62.60
47090;DHT22;32840;52.516;13.294;2023-08-21T15:57:35;26.90;62.50
47090;DHT22;32840;52.516;13.294;2023-08-21T16:00:20;26.90;62.70
47090;DHT22;32840;52.516;13.294;2023-08-21T16:03:08;26.90;62.50
47090;DHT22;32840;52.516;13.294;2023-08-21T16:05:53;26.90;63.20
47090;DHT22;32840;52.516;13.294;2023-08-21T16:08:38;26.80;63.40
47090;DHT22;32840;52.516;13.294;2023-08-21T16:11:26;26.80;63.40
47090;DHT22;32840;52.516;13.294;2023-08-21T16:14:11;26.80;64.70
47090;DHT22;32840;52.516;13.294;2023-08-21T16:16:57;26.80;69.30
47090;DHT22;32840;52.516;13.294;2023-08-21T16:19:43;26.80;66.20
47090;DHT22;32840;52.516;13.294;2023-08-21T16:22:28;26.70;68.60
47090;DHT22;32840;52.516;13.294;2023-08-21T16:25:13;26.60;64.60
47090;DHT22;32840;52.516;13.294;2023-08-21T16:27:58;26.50;65.30
47090;DHT22;32840;52.516;13.294;2023-08-21T16:30:43;26.40;67.50
47090;DHT22;32840;52.516;13.294;2023-08-21T16:33:27;26.40;65.60
47090;DHT22;32840;52.516;13.294;2023-08-21T16:36:14;26.40;67.10
47090;DHT22;32840;52.516;13.294;2023-08-21T16:38:59;26.40;66.30
47090;DHT22;32840;52.516;13.294;2023-08-21T16:41:44;26.40;66.30
47090;DHT22;32840;52.516;13.294;2023-08-21T16:44:29;26.30;64.80
47090;DHT22;32840;52.516;13.294;2023-08-21T16:47:14;26.30;64.70
47090;DHT22;32840;52.516;13.294;2023-08-21T16:49:59;26.30;65.90
47090;DHT22;32840;52.516;13.294;2023-08-21T16:52:44;26.30;63.40
47090;DHT22;32840;52.516;13.294;2023-08-21T16:55:29;26.20;64.20
47090;DHT22;32840;52.516;13.294;2023-08-21T16:58:14;26.10;63.40
47090;DHT22;32840;52.516;13.294;2023-08-21T17:01:00;26.10;63.50
47090;DHT22;32840;52.516;13.294;2023-08-21T17:03:44;26.10;64.60
47090;DHT22;32840;52.516;13.294;2023-08-21T17:06:29;26.10;66.40
47090;DHT22;32840;52.516;13.294;2023-08-21T17:09:15;26.00;63.70
47090;DHT22;32840;52.516;13.294;2023-08-21T17:12:00;26.00;63.70
47090;DHT22;32840;52.516;13.294;2023-08-21T17:14:45;25.90;64.80
47090;DHT22;32840;52.516;13.294;2023-08-21T17:17:32;25.90;64.60
47090;DHT22;32840;52.516;13.294;2023-08-21T17:20:17;25.90;66.00